createdAt,value
2023-05-21T00:00:48.962Z,18.01
2023-05-21T00:03:16.478Z,18.21
2023-05-21T00:05:47.755Z,18.41
2023-05-21T00:08:15.556Z,18.44
2023-05-21T00:10:42.659Z,18.11
2023-05-21T00:13:12.821Z,17.89
2023-05-21T00:15:40.000Z,18.10
2023-05-21T00:18:07.545Z,17.86
2023-05-21T00:20:35.560Z,18.11
2023-05-21T00:23:03.947Z,18.05
2023-05-21T00:25:31.362Z,17.86
2023-05-21T00:27:58.574Z,18.15
2023-05-21T00:30:25.829Z,17.93
2023-05-21T00:33:05.466Z,17.68
2023-05-21T00:35:36.245Z,17.49
2023-05-21T00:38:12.225Z,17.78
2023-05-21T00:40:41.272Z,17.51
2023-05-21T00:43:10.702Z,17.64
2023-05-21T00:45:43.068Z,17.35
2023-05-21T00:48:11.484Z,17.27
2023-05-21T00:50:42.163Z,17.79
2023-05-21T00:53:12.699Z,17.33
2023-05-21T00:55:41.218Z,17.70
2023-05-21T00:58:09.169Z,17.21
2023-05-21T01:00:44.292Z,17.53
2023-05-21T01:03:13.914Z,17.49
2023-05-21T01:05:45.244Z,17.48
2023-05-21T01:08:16.283Z,17.60
2023-05-21T01:10:44.402Z,17.83
2023-05-21T01:13:16.368Z,17.87
2023-05-21T01:15:47.757Z,18.13
2023-05-21T01:18:18.861Z,17.66
2023-05-21T01:20:48.204Z,17.80
2023-05-21T01:23:20.116Z,17.48
2023-05-21T01:25:47.857Z,17.70
2023-05-21T01:28:15.027Z,17.67
2023-05-21T01:30:43.496Z,17.87
2023-05-21T01:33:43.717Z,17.97
2023-05-21T01:36:32.849Z,17.64
2023-05-21T01:39:23.995Z,17.72
2023-05-21T01:41:55.768Z,17.48
2023-05-21T01:44:26.491Z,17.44
2023-05-21T01:46:56.519Z,17.56
2023-05-21T01:49:24.778Z,17.71
2023-05-21T01:51:52.226Z,17.59
2023-05-21T01:54:28.506Z,17.25
2023-05-21T01:56:56.244Z,17.63
2023-05-21T01:59:23.589Z,17.31
2023-05-21T02:01:51.004Z,17.37
2023-05-21T02:04:18.274Z,17.54
2023-05-21T02:06:45.689Z,17.78
2023-05-21T02:09:12.838Z,18.13
2023-05-21T02:11:40.004Z,17.95
2023-05-21T02:14:10.379Z,18.04
2023-05-21T02:16:38.525Z,17.77
2023-05-21T02:19:06.689Z,17.37
2023-05-21T02:21:34.103Z,18.43
2023-05-21T02:24:01.429Z,17.64
2023-05-21T02:26:31.632Z,17.48
2023-05-21T02:28:59.243Z,17.25
2023-05-21T02:31:29.730Z,17.34
2023-05-21T02:33:56.957Z,17.31
2023-05-21T02:36:28.798Z,17.43
2023-05-21T02:38:57.789Z,17.31
2023-05-21T02:41:25.101Z,17.08
2023-05-21T02:43:55.254Z,17.22
2023-05-21T02:46:25.134Z,17.30
2023-05-21T02:48:52.539Z,17.19
2023-05-21T02:51:19.665Z,17.28
2023-05-21T02:53:46.847Z,18.16
2023-05-21T02:56:14.061Z,17.99
2023-05-21T02:58:41.805Z,18.12
2023-05-21T03:01:08.987Z,17.79
2023-05-21T03:03:36.308Z,18.25
2023-05-21T03:06:03.749Z,18.05
2023-05-21T03:08:31.812Z,17.82
2023-05-21T03:10:58.949Z,18.02
2023-05-21T03:13:26.141Z,17.86
2023-05-21T03:15:56.494Z,18.22
2023-05-21T03:18:24.187Z,18.44
2023-05-21T03:20:51.354Z,18.05
2023-05-21T03:23:18.573Z,18.09
2023-05-21T03:25:46.197Z,17.81
2023-05-21T03:28:13.425Z,17.31
2023-05-21T03:30:40.837Z,17.52
2023-05-21T03:33:08.115Z,17.28
2023-05-21T03:35:35.644Z,17.45
2023-05-21T03:38:03.093Z,17.88
2023-05-21T03:40:30.239Z,17.80
2023-05-21T03:42:57.473Z,17.46
2023-05-21T03:45:24.638Z,17.36
2023-05-21T03:47:51.837Z,17.76
2023-05-21T03:50:19.064Z,17.59
2023-05-21T03:52:46.181Z,17.96
2023-05-21T03:55:13.508Z,17.33
2023-05-21T03:57:41.880Z,17.45
2023-05-21T04:00:10.033Z,18.00
2023-05-21T04:02:37.387Z,17.88
2023-05-21T04:05:05.084Z,17.48
2023-05-21T04:07:34.812Z,17.44
2023-05-21T04:10:02.052Z,17.86
2023-05-21T04:12:29.174Z,17.98
2023-05-21T04:14:56.699Z,17.96
2023-05-21T04:17:27.069Z,17.87
2023-05-21T04:19:54.420Z,18.00
2023-05-21T04:22:23.570Z,17.94
2023-05-21T04:24:59.642Z,17.65
2023-05-21T04:27:29.851Z,18.49
2023-05-21T04:29:58.026Z,18.03
2023-05-21T04:32:25.606Z,17.94
2023-05-21T04:34:52.706Z,18.17
2023-05-21T04:37:20.025Z,17.95
2023-05-21T04:39:48.106Z,18.23
2023-05-21T04:42:19.427Z,18.05
2023-05-21T04:44:46.619Z,17.80
2023-05-21T04:47:14.861Z,18.23
2023-05-21T04:49:57.189Z,18.38
2023-05-21T04:52:25.152Z,18.86
2023-05-21T04:54:58.513Z,18.94
2023-05-21T04:57:35.750Z,19.11
2023-05-21T05:00:06.768Z,19.09
2023-05-21T05:02:37.132Z,18.56
2023-05-21T05:05:07.517Z,19.33
2023-05-21T05:07:35.500Z,19.03
2023-05-21T05:10:09.207Z,19.33
2023-05-21T05:12:42.667Z,19.38
2023-05-21T05:15:16.410Z,18.91
2023-05-21T05:17:52.192Z,19.40
2023-05-21T05:20:22.411Z,20.00
2023-05-21T05:23:18.387Z,19.43
2023-05-21T05:25:48.472Z,20.28
2023-05-21T05:29:13.479Z,19.97
2023-05-21T05:33:08.127Z,20.30
2023-05-21T05:34:46.316Z,20.71
2023-05-21T05:37:13.663Z,20.79
2023-05-21T05:40:00.642Z,20.45
2023-05-21T05:42:31.451Z,20.15
2023-05-21T05:45:01.159Z,20.52
2023-05-21T05:47:28.278Z,21.49
2023-05-21T05:49:55.649Z,22.12
2023-05-21T05:54:53.062Z,21.52
2023-05-21T05:57:20.215Z,21.54
2023-05-21T05:59:50.245Z,22.54
2023-05-21T06:02:19.452Z,22.29
2023-05-21T06:04:46.769Z,23.00
2023-05-21T06:07:14.183Z,21.63
2023-05-21T06:09:46.740Z,21.73
2023-05-21T06:12:15.970Z,22.66
2023-05-21T06:14:46.154Z,22.81
2023-05-21T06:17:13.537Z,22.76
2023-05-21T06:19:40.821Z,21.96
2023-05-21T06:22:08.572Z,22.08
2023-05-21T06:24:35.911Z,21.39
2023-05-21T06:27:04.052Z,22.22
2023-05-21T06:29:31.267Z,21.98
2023-05-21T06:32:01.674Z,23.10
2023-05-21T06:34:29.380Z,21.69
2023-05-21T06:36:57.149Z,22.38
2023-05-21T06:39:24.662Z,22.42
2023-05-21T06:41:52.572Z,22.32
2023-05-21T06:44:20.096Z,22.77
2023-05-21T06:46:47.709Z,22.62
2023-05-21T06:49:15.036Z,22.98
2023-05-21T06:51:42.772Z,22.88
2023-05-21T06:54:09.883Z,22.82
2023-05-21T06:56:37.078Z,22.55
2023-05-21T06:59:05.514Z,22.71
2023-05-21T07:01:36.803Z,21.96
2023-05-21T07:04:04.367Z,23.21
2023-05-21T07:06:32.552Z,23.30
2023-05-21T07:08:59.710Z,22.59
2023-05-21T07:11:28.884Z,23.87
2023-05-21T07:14:03.977Z,24.08
2023-05-21T07:16:39.549Z,24.58
2023-05-21T07:19:13.744Z,23.51
2023-05-21T07:21:47.220Z,23.85
2023-05-21T07:24:14.323Z,23.20
2023-05-21T07:26:42.481Z,23.79
2023-05-21T07:29:09.925Z,23.28
2023-05-21T07:31:37.139Z,23.39
2023-05-21T07:34:04.544Z,23.19
2023-05-21T07:36:34.043Z,23.52
2023-05-21T07:39:01.691Z,23.37
2023-05-21T07:41:28.905Z,23.11
2023-05-21T07:43:59.144Z,23.18
2023-05-21T07:46:26.372Z,23.87
2023-05-21T07:48:54.085Z,23.15
2023-05-21T07:51:21.551Z,24.95
2023-05-21T07:53:48.753Z,23.57
2023-05-21T07:56:16.297Z,23.98
2023-05-21T07:58:45.955Z,23.74
2023-05-21T08:01:14.207Z,23.73
2023-05-21T08:03:41.715Z,24.24
2023-05-21T08:06:11.531Z,24.20
2023-05-21T08:08:38.769Z,24.44
2023-05-21T08:11:09.140Z,24.28
2023-05-21T08:13:36.517Z,24.49
2023-05-21T08:16:04.292Z,24.88
2023-05-21T08:18:31.906Z,24.25
2023-05-21T08:21:00.441Z,24.94
2023-05-21T08:23:28.241Z,26.54
2023-05-21T08:25:58.307Z,25.66
2023-05-21T08:28:28.948Z,24.63
2023-05-21T08:30:56.497Z,25.05
2023-05-21T08:33:23.808Z,24.75
2023-05-21T08:35:50.935Z,25.02
2023-05-21T08:38:18.262Z,25.81
2023-05-21T08:40:50.109Z,25.75
2023-05-21T08:43:18.002Z,25.34
2023-05-21T08:46:00.693Z,27.10
2023-05-21T08:48:28.240Z,25.84
2023-05-21T08:51:03.301Z,25.82
2023-05-21T08:53:32.595Z,26.35
2023-05-21T08:56:00.178Z,26.93
2023-05-21T08:58:31.973Z,27.48
2023-05-21T09:00:59.608Z,25.81
2023-05-21T09:03:29.312Z,25.65
2023-05-21T09:05:57.472Z,27.17
2023-05-21T09:08:39.149Z,27.09
2023-05-21T09:11:06.592Z,27.83
2023-05-21T09:13:35.849Z,27.48
2023-05-21T09:16:05.856Z,27.10
2023-05-21T09:18:33.022Z,27.01
2023-05-21T09:21:31.417Z,26.68
2023-05-21T09:24:01.479Z,28.01
2023-05-21T09:26:28.738Z,27.55
2023-05-21T09:29:04.228Z,26.82
2023-05-21T09:31:33.009Z,29.34
2023-05-21T09:34:00.935Z,27.18
2023-05-21T09:36:29.557Z,28.05
2023-05-21T09:39:03.132Z,26.86
2023-05-21T09:41:36.029Z,27.54
2023-05-21T09:44:04.067Z,28.53
2023-05-21T09:46:42.074Z,26.53
2023-05-21T09:49:28.365Z,28.14
2023-05-21T09:51:59.029Z,28.94
2023-05-21T09:54:34.509Z,28.02
2023-05-21T09:57:07.849Z,28.44
2023-05-21T09:59:42.005Z,27.88
2023-05-21T10:02:24.024Z,28.25
2023-05-21T10:04:54.494Z,27.62
2023-05-21T10:07:26.419Z,28.08
2023-05-21T10:10:15.072Z,28.21
2023-05-21T10:12:47.882Z,28.69
2023-05-21T10:15:22.343Z,28.71
2023-05-21T10:17:51.008Z,29.62
2023-05-21T10:20:18.571Z,29.14
2023-05-21T10:22:46.303Z,29.54
2023-05-21T10:25:14.265Z,29.28
2023-05-21T10:27:42.539Z,29.70
2023-05-21T10:30:10.789Z,29.91
2023-05-21T10:32:42.288Z,28.41
2023-05-21T10:35:10.125Z,28.41
2023-05-21T10:37:37.600Z,28.62
2023-05-21T10:40:09.038Z,30.13
2023-05-21T10:42:49.763Z,30.61
2023-05-21T10:46:15.017Z,30.06
2023-05-21T10:49:22.562Z,29.43
2023-05-21T10:52:57.418Z,28.94
2023-05-21T10:56:16.203Z,28.83
2023-05-21T10:59:34.542Z,29.29
2023-05-21T11:02:02.444Z,30.09
2023-05-21T11:04:29.934Z,29.50
2023-05-21T11:06:59.253Z,29.48
2023-05-21T11:09:27.691Z,31.02
2023-05-21T11:11:59.321Z,30.69
2023-05-21T11:14:42.855Z,29.18
2023-05-21T11:17:15.873Z,30.35
2023-05-21T11:19:48.766Z,30.40
2023-05-21T11:22:27.669Z,29.94
2023-05-21T11:25:03.166Z,30.68
2023-05-21T11:27:41.829Z,28.71
2023-05-21T11:30:20.020Z,30.02
2023-05-21T11:33:14.195Z,30.07
2023-05-21T11:36:02.154Z,29.25
2023-05-21T11:38:34.072Z,29.34
2023-05-21T11:41:05.153Z,29.64
2023-05-21T11:43:32.319Z,29.53
2023-05-21T11:45:59.967Z,29.35
2023-05-21T11:48:29.414Z,29.84
2023-05-21T11:50:58.006Z,30.10
2023-05-21T11:53:25.265Z,31.01
2023-05-21T11:55:57.312Z,31.15
2023-05-21T11:58:25.850Z,30.61
2023-05-21T12:00:53.219Z,29.86
2023-05-21T12:03:26.629Z,31.27
2023-05-21T12:05:54.302Z,31.79
2023-05-21T12:08:25.463Z,32.24
2023-05-21T12:11:00.468Z,31.81
2023-05-21T12:13:28.611Z,31.41
2023-05-21T12:16:00.991Z,30.80
2023-05-21T12:18:30.263Z,30.62
2023-05-21T12:20:57.549Z,30.91
2023-05-21T12:23:25.188Z,31.39
2023-05-21T12:25:53.723Z,31.56
2023-05-21T12:28:24.882Z,31.68
2023-05-21T12:30:53.550Z,30.45
2023-05-21T12:33:23.125Z,30.49
2023-05-21T12:35:52.526Z,30.90
2023-05-21T12:38:22.760Z,30.28
2023-05-21T12:40:50.023Z,30.63
2023-05-21T12:43:20.163Z,29.81
2023-05-21T12:45:47.345Z,30.44
2023-05-21T12:48:15.094Z,30.71
2023-05-21T12:50:45.460Z,30.30
2023-05-21T12:53:12.898Z,31.22
2023-05-21T12:55:40.589Z,31.81
2023-05-21T12:58:08.856Z,30.84
2023-05-21T13:00:37.189Z,31.64
2023-05-21T13:03:06.235Z,31.27
2023-05-21T13:05:34.359Z,32.21
2023-05-21T13:08:01.766Z,33.87
2023-05-21T13:10:29.103Z,31.91
2023-05-21T13:12:56.508Z,31.24
2023-05-21T13:15:23.775Z,31.56
2023-05-21T13:17:52.056Z,30.34
2023-05-21T13:20:21.692Z,30.58
2023-05-21T13:22:52.237Z,30.40
2023-05-21T13:25:29.068Z,30.28
2023-05-21T13:27:59.963Z,30.35
2023-05-21T13:30:27.212Z,31.36
2023-05-21T13:32:55.016Z,31.85
2023-05-21T13:35:22.472Z,31.32
2023-05-21T13:37:49.846Z,31.91
2023-05-21T13:40:17.486Z,31.17
2023-05-21T13:42:48.894Z,33.00
2023-05-21T13:45:19.690Z,32.39
2023-05-21T13:47:48.244Z,33.77
2023-05-21T13:50:16.654Z,32.36
2023-05-21T13:52:46.163Z,32.43
2023-05-21T13:55:15.690Z,32.90
2023-05-21T13:57:43.830Z,31.83
2023-05-21T14:00:14.277Z,32.28
2023-05-21T14:02:45.230Z,32.44
2023-05-21T14:05:13.110Z,31.15
2023-05-21T14:07:40.756Z,31.13
2023-05-21T14:10:08.843Z,31.42
2023-05-21T14:12:36.408Z,32.03
2023-05-21T14:15:03.913Z,31.29
2023-05-21T14:17:31.074Z,30.89
2023-05-21T14:19:58.512Z,31.80
2023-05-21T14:22:25.698Z,32.69
2023-05-21T14:24:52.914Z,31.15
2023-05-21T14:27:20.120Z,30.69
2023-05-21T14:29:47.330Z,31.94
2023-05-21T14:32:18.405Z,32.63
2023-05-21T14:34:47.165Z,31.74
2023-05-21T14:37:14.420Z,30.96
2023-05-21T14:39:41.612Z,31.08
2023-05-21T14:42:08.742Z,30.52
2023-05-21T14:44:39.471Z,30.27
2023-05-21T14:47:06.590Z,30.62
2023-05-21T14:49:33.862Z,29.79
2023-05-21T14:52:01.306Z,30.10
2023-05-21T14:54:28.426Z,31.13
2023-05-21T14:56:55.795Z,30.56
2023-05-21T14:59:25.399Z,30.91
2023-05-21T15:01:52.660Z,30.62
2023-05-21T15:04:35.193Z,29.63
2023-05-21T15:07:04.879Z,30.29
2023-05-21T15:09:32.301Z,29.85
2023-05-21T15:11:59.748Z,29.72
2023-05-21T15:14:31.065Z,30.22
2023-05-21T15:16:58.401Z,30.09
2023-05-21T15:19:25.955Z,29.76
2023-05-21T15:21:53.440Z,29.91
2023-05-21T15:24:20.974Z,29.99
2023-05-21T15:26:49.298Z,30.79
2023-05-21T15:29:16.404Z,30.16
2023-05-21T15:31:43.669Z,30.10
2023-05-21T15:34:10.895Z,29.51
2023-05-21T15:36:38.292Z,30.62
2023-05-21T15:39:06.110Z,30.52
2023-05-21T15:41:39.990Z,31.11
2023-05-21T15:44:07.078Z,30.47
2023-05-21T15:46:34.533Z,30.25
2023-05-21T15:49:03.964Z,29.84
2023-05-21T15:51:31.350Z,29.60
2023-05-21T15:53:58.887Z,29.54
2023-05-21T15:56:26.608Z,30.04
2023-05-21T15:58:54.022Z,30.41
2023-05-21T16:01:24.132Z,30.05
2023-05-21T16:03:51.895Z,29.92
2023-05-21T16:06:20.002Z,30.12
2023-05-21T16:08:47.977Z,29.63
2023-05-21T16:11:15.388Z,29.93
2023-05-21T16:14:03.396Z,29.48
2023-05-21T16:16:30.674Z,29.92
2023-05-21T16:18:57.816Z,29.69
2023-05-21T16:21:25.050Z,29.74
2023-05-21T16:23:52.261Z,29.77
2023-05-21T16:26:19.441Z,30.59
2023-05-21T16:28:46.590Z,29.34
2023-05-21T16:31:14.162Z,29.60
2023-05-21T16:33:41.388Z,29.49
2023-05-21T16:36:08.706Z,29.35
2023-05-21T16:38:36.124Z,28.85
2023-05-21T16:41:04.617Z,29.85
2023-05-21T16:43:31.936Z,28.79
2023-05-21T16:45:59.345Z,28.45
2023-05-21T16:48:29.149Z,28.17
2023-05-21T16:50:56.459Z,28.38
2023-05-21T16:53:23.577Z,28.25
2023-05-21T16:55:50.862Z,28.40
2023-05-21T16:58:18.932Z,28.80
2023-05-21T17:00:46.567Z,28.25
2023-05-21T17:03:14.062Z,28.38
2023-05-21T17:05:41.480Z,28.53
2023-05-21T17:08:11.360Z,28.14
2023-05-21T17:10:38.685Z,28.26
2023-05-21T17:13:20.895Z,28.61
2023-05-21T17:15:51.451Z,27.99
2023-05-21T17:18:19.980Z,28.42
2023-05-21T17:20:47.188Z,28.65
2023-05-21T17:23:14.706Z,28.24
2023-05-21T17:25:42.574Z,28.81
2023-05-21T17:28:09.989Z,28.12
2023-05-21T17:30:37.624Z,28.42
2023-05-21T17:33:07.481Z,27.85
2023-05-21T17:35:35.188Z,27.94
2023-05-21T17:38:02.645Z,27.82
2023-05-21T17:40:29.708Z,27.93
2023-05-21T17:42:57.010Z,27.52
2023-05-21T17:45:24.157Z,28.21
2023-05-21T17:47:51.912Z,27.94
2023-05-21T17:50:19.047Z,27.51
2023-05-21T17:52:46.183Z,27.61
2023-05-21T17:55:14.376Z,27.28
2023-05-21T17:57:41.565Z,26.88
2023-05-21T18:00:10.194Z,27.11
2023-05-21T18:02:37.501Z,26.83
2023-05-21T18:05:05.302Z,26.99
2023-05-21T18:07:32.456Z,27.05
2023-05-21T18:09:59.852Z,27.05
2023-05-21T18:12:26.985Z,26.42
2023-05-21T18:14:54.351Z,26.23
2023-05-21T18:17:24.173Z,26.45
2023-05-21T18:19:51.632Z,26.12
2023-05-21T18:22:18.749Z,26.08
2023-05-21T18:24:46.217Z,26.09
2023-05-21T18:27:13.543Z,25.99
2023-05-21T18:29:40.760Z,26.20
2023-05-21T18:32:08.641Z,25.59
2023-05-21T18:34:35.867Z,25.74
2023-05-21T18:37:03.081Z,26.35
2023-05-21T18:39:30.411Z,25.79
2023-05-21T18:44:27.762Z,25.68
2023-05-21T18:46:55.684Z,25.52
2023-05-21T18:49:24.309Z,25.46
2023-05-21T18:51:51.608Z,25.45
2023-05-21T18:54:18.696Z,25.12
2023-05-21T18:56:46.157Z,25.16
2023-05-21T18:59:13.386Z,25.04
2023-05-21T19:01:40.631Z,25.58
2023-05-21T19:04:07.849Z,25.25
2023-05-21T19:06:35.076Z,24.94
2023-05-21T19:09:02.404Z,24.70
2023-05-21T19:11:34.374Z,24.77
2023-05-21T19:14:01.944Z,24.26
2023-05-21T19:16:29.546Z,24.57
2023-05-21T19:18:57.255Z,24.41
2023-05-21T19:21:25.206Z,24.07
2023-05-21T19:23:55.654Z,24.09
2023-05-21T19:26:23.384Z,24.07
2023-05-21T19:28:53.442Z,24.18
2023-05-21T19:31:23.055Z,24.24
2023-05-21T19:33:50.757Z,24.22
2023-05-21T19:36:18.689Z,24.07
2023-05-21T19:38:50.609Z,23.74
2023-05-21T19:41:22.104Z,23.68
2023-05-21T19:43:49.384Z,24.03
2023-05-21T19:46:19.812Z,23.56
2023-05-21T19:48:48.255Z,24.05
2023-05-21T19:51:18.540Z,23.92
2023-05-21T19:53:45.661Z,23.91
2023-05-21T19:56:12.754Z,23.67
2023-05-21T19:58:47.026Z,23.78
2023-05-21T20:01:16.536Z,24.07
2023-05-21T20:03:44.914Z,23.84
2023-05-21T20:06:13.069Z,24.00
2023-05-21T20:08:42.927Z,24.05
2023-05-21T20:11:11.048Z,24.22
2023-05-21T20:13:38.475Z,24.17
2023-05-21T20:16:06.003Z,24.14
2023-05-21T20:18:33.138Z,24.05
2023-05-21T20:21:00.670Z,23.48
2023-05-21T20:23:30.759Z,23.73
2023-05-21T20:25:57.974Z,23.47
2023-05-21T20:28:27.426Z,23.01
2023-05-21T20:31:00.042Z,23.65
2023-05-21T20:33:32.308Z,23.18
2023-05-21T20:36:00.509Z,23.55
2023-05-21T20:38:33.465Z,23.34
2023-05-21T20:41:01.335Z,23.40
2023-05-21T20:43:28.644Z,23.42
2023-05-21T20:46:01.824Z,23.22
2023-05-21T20:48:32.080Z,23.53
2023-05-21T20:51:04.349Z,23.14
2023-05-21T20:53:31.933Z,24.06
2023-05-21T20:56:01.358Z,23.62
2023-05-21T20:58:28.829Z,23.82
2023-05-21T21:00:56.009Z,24.05
2023-05-21T21:03:23.289Z,23.19
2023-05-21T21:05:50.670Z,23.50
2023-05-21T21:08:18.188Z,23.44
2023-05-21T21:10:49.510Z,23.43
2023-05-21T21:13:16.748Z,23.65
2023-05-21T21:15:44.207Z,23.14
2023-05-21T21:18:14.268Z,23.15
2023-05-21T21:20:42.598Z,23.55
2023-05-21T21:23:09.879Z,23.18
2023-05-21T21:25:37.067Z,23.14
2023-05-21T21:28:11.629Z,23.16
2023-05-21T21:30:41.078Z,22.76
2023-05-21T21:33:08.932Z,23.09
2023-05-21T21:35:36.245Z,22.98
2023-05-21T21:38:05.017Z,23.06
2023-05-21T21:40:32.359Z,23.07
2023-05-21T21:42:59.872Z,22.73
2023-05-21T21:45:27.133Z,23.56
2023-05-21T21:47:54.290Z,23.43
2023-05-21T21:50:21.955Z,23.19
2023-05-21T21:52:49.132Z,22.91
2023-05-21T21:55:19.685Z,22.72
2023-05-21T21:57:46.897Z,23.35
2023-05-21T22:00:20.960Z,22.92
2023-05-21T22:02:48.313Z,22.65
2023-05-21T22:05:15.877Z,23.09
2023-05-21T22:07:47.164Z,22.97
2023-05-21T22:10:19.137Z,22.96
2023-05-21T22:12:46.830Z,22.58
2023-05-21T22:15:28.698Z,22.83
2023-05-21T22:17:56.041Z,22.60
2023-05-21T22:20:23.439Z,23.19
2023-05-21T22:22:51.334Z,23.30
2023-05-21T22:25:19.183Z,22.64
2023-05-21T22:27:46.548Z,22.95
2023-05-21T22:30:13.895Z,22.66
2023-05-21T22:32:41.181Z,22.81
2023-05-21T22:35:12.552Z,22.65
2023-05-21T22:37:43.463Z,22.76
2023-05-21T22:40:11.094Z,22.80
2023-05-21T22:42:38.905Z,22.86
2023-05-21T22:45:07.438Z,22.70
2023-05-21T22:47:38.189Z,22.85
2023-05-21T22:50:10.228Z,22.71
2023-05-21T22:52:40.143Z,22.92
2023-05-21T22:55:11.204Z,22.26
2023-05-21T22:57:38.938Z,22.57
2023-05-21T23:00:07.994Z,22.29
2023-05-21T23:02:35.282Z,22.43
2023-05-21T23:05:02.836Z,22.12
2023-05-21T23:07:30.586Z,22.17
2023-05-21T23:09:58.125Z,22.28
2023-05-21T23:12:25.394Z,22.57
2023-05-21T23:14:52.854Z,22.16
2023-05-21T23:17:20.331Z,22.28
2023-05-21T23:19:52.346Z,22.04
2023-05-21T23:22:23.005Z,22.67
2023-05-21T23:24:51.733Z,22.17
2023-05-21T23:27:20.751Z,21.85
2023-05-21T23:29:47.993Z,21.98
2023-05-21T23:32:15.664Z,22.17
2023-05-21T23:34:42.943Z,22.28
2023-05-21T23:37:10.787Z,22.22
2023-05-21T23:39:38.065Z,22.15
2023-05-21T23:42:06.275Z,22.65
2023-05-21T23:44:33.385Z,22.88
2023-05-21T23:47:00.615Z,22.61
2023-05-21T23:49:27.804Z,22.68
2023-05-21T23:51:55.266Z,22.83
2023-05-21T23:54:22.443Z,22.20
2023-05-21T23:56:49.835Z,22.50
2023-05-21T23:59:18.479Z,21.85
